sensor_id;sensor_type;location;lat;lon;timestamp;P1;durP1;ratioP1;P2;durP2;ratioP2
11422;SDS011;5768;51.476;7.210;2023-06-22T00:02:25;5.97;;;5.38;;
11422;SDS011;5768;51.476;7.210;2023-06-22T00:07:28;9.52;;;6.72;;
11422;SDS011;5768;51.476;7.210;2023-06-22T00:12:30;8.40;;;6.63;;
11422;SDS011;5768;51.476;7.210;2023-06-22T00:17:36;7.07;;;6.40;;
11422;SDS011;5768;51.476;7.210;2023-06-22T00:22:39;7.85;;;7.18;;
11422;SDS011;5768;51.476;7.210;2023-06-22T00:27:43;7.95;;;7.20;;
11422;SDS011;5768;51.476;7.210;2023-06-22T00:32:47;7.75;;;7.00;;
11422;SDS011;5768;51.476;7.210;2023-06-22T00:37:49;8.55;;;7.63;;
11422;SDS011;5768;51.476;7.210;2023-06-22T00:42:53;7.10;;;6.40;;
11422;SDS011;5768;51.476;7.210;2023-06-22T00:47:58;8.30;;;7.40;;
11422;SDS011;5768;51.476;7.210;2023-06-22T00:53:03;7.82;;;6.95;;
11422;SDS011;5768;51.476;7.210;2023-06-22T00:58:08;8.23;;;7.05;;
11422;SDS011;5768;51.476;7.210;2023-06-22T01:03:12;8.00;;;6.80;;
11422;SDS011;5768;51.476;7.210;2023-06-22T01:08:21;8.38;;;7.07;;
11422;SDS011;5768;51.476;7.210;2023-06-22T01:13:32;8.13;;;7.05;;
11422;SDS011;5768;51.476;7.210;2023-06-22T01:18:43;8.75;;;7.90;;
11422;SDS011;5768;51.476;7.210;2023-06-22T01:23:54;8.80;;;7.90;;
11422;SDS011;5768;51.476;7.210;2023-06-22T01:29:06;9.00;;;8.10;;
11422;SDS011;5768;51.476;7.210;2023-06-22T01:34:13;8.85;;;7.93;;
11422;SDS011;5768;51.476;7.210;2023-06-22T01:39:17;8.50;;;7.50;;
11422;SDS011;5768;51.476;7.210;2023-06-22T01:44:22;9.98;;;8.45;;
11422;SDS011;5768;51.476;7.210;2023-06-22T01:49:26;9.57;;;8.68;;
11422;SDS011;5768;51.476;7.210;2023-06-22T01:54:30;8.90;;;8.05;;
11422;SDS011;5768;51.476;7.210;2023-06-22T01:59:34;9.43;;;8.57;;
11422;SDS011;5768;51.476;7.210;2023-06-22T02:04:41;10.13;;;9.18;;
11422;SDS011;5768;51.476;7.210;2023-06-22T02:09:48;10.57;;;9.25;;
11422;SDS011;5768;51.476;7.210;2023-06-22T02:14:55;9.55;;;8.52;;
11422;SDS011;5768;51.476;7.210;2023-06-22T02:19:58;11.02;;;9.48;;
11422;SDS011;5768;51.476;7.210;2023-06-22T02:25:03;10.52;;;9.43;;
11422;SDS011;5768;51.476;7.210;2023-06-22T02:30:08;10.10;;;9.20;;
11422;SDS011;5768;51.476;7.210;2023-06-22T02:35:11;11.93;;;10.73;;
11422;SDS011;5768;51.476;7.210;2023-06-22T02:40:13;11.48;;;10.27;;
11422;SDS011;5768;51.476;7.210;2023-06-22T02:45:17;10.13;;;9.13;;
11422;SDS011;5768;51.476;7.210;2023-06-22T02:50:20;11.35;;;8.80;;
11422;SDS011;5768;51.476;7.210;2023-06-22T02:55:22;10.63;;;9.63;;
11422;SDS011;5768;51.476;7.210;2023-06-22T03:00:26;11.02;;;9.30;;
11422;SDS011;5768;51.476;7.210;2023-06-22T03:05:30;10.95;;;9.77;;
11422;SDS011;5768;51.476;7.210;2023-06-22T03:10:33;10.43;;;9.52;;
11422;SDS011;5768;51.476;7.210;2023-06-22T03:15:36;11.55;;;10.38;;
11422;SDS011;5768;51.476;7.210;2023-06-22T03:20:39;9.98;;;9.13;;
11422;SDS011;5768;51.476;7.210;2023-06-22T03:25:41;11.93;;;10.70;;
11422;SDS011;5768;51.476;7.210;2023-06-22T03:30:47;11.10;;;10.10;;
11422;SDS011;5768;51.476;7.210;2023-06-22T03:35:49;11.80;;;10.13;;
11422;SDS011;5768;51.476;7.210;2023-06-22T03:40:52;12.57;;;11.48;;
11422;SDS011;5768;51.476;7.210;2023-06-22T03:45:55;12.52;;;11.23;;
11422;SDS011;5768;51.476;7.210;2023-06-22T03:50:58;10.77;;;9.80;;
11422;SDS011;5768;51.476;7.210;2023-06-22T03:56:03;13.05;;;11.85;;
11422;SDS011;5768;51.476;7.210;2023-06-22T04:01:07;12.00;;;10.80;;
11422;SDS011;5768;51.476;7.210;2023-06-22T04:06:11;12.35;;;11.13;;
11422;SDS011;5768;51.476;7.210;2023-06-22T04:11:14;13.45;;;12.15;;
11422;SDS011;5768;51.476;7.210;2023-06-22T04:16:17;12.52;;;11.50;;
11422;SDS011;5768;51.476;7.210;2023-06-22T04:21:20;13.02;;;11.85;;
11422;SDS011;5768;51.476;7.210;2023-06-22T04:26:22;12.38;;;11.30;;
11422;SDS011;5768;51.476;7.210;2023-06-22T04:31:26;13.10;;;11.93;;
11422;SDS011;5768;51.476;7.210;2023-06-22T04:36:33;14.25;;;12.40;;
11422;SDS011;5768;51.476;7.210;2023-06-22T04:41:39;13.25;;;12.15;;
11422;SDS011;5768;51.476;7.210;2023-06-22T04:46:46;13.73;;;12.43;;
11422;SDS011;5768;51.476;7.210;2023-06-22T04:51:53;13.60;;;12.38;;
11422;SDS011;5768;51.476;7.210;2023-06-22T04:56:56;13.68;;;12.30;;
11422;SDS011;5768;51.476;7.210;2023-06-22T05:02:00;13.77;;;12.38;;
11422;SDS011;5768;51.476;7.210;2023-06-22T05:07:04;14.38;;;13.10;;
11422;SDS011;5768;51.476;7.210;2023-06-22T05:12:07;16.60;;;14.23;;
11422;SDS011;5768;51.476;7.210;2023-06-22T05:17:11;16.77;;;12.77;;
11422;SDS011;5768;51.476;7.210;2023-06-22T05:22:14;13.95;;;12.13;;
11422;SDS011;5768;51.476;7.210;2023-06-22T05:27:17;15.55;;;13.40;;
11422;SDS011;5768;51.476;7.210;2023-06-22T05:32:21;16.38;;;12.90;;
11422;SDS011;5768;51.476;7.210;2023-06-22T05:37:23;71.13;;;23.25;;
11422;SDS011;5768;51.476;7.210;2023-06-22T05:42:26;16.70;;;13.73;;
11422;SDS011;5768;51.476;7.210;2023-06-22T05:47:31;13.65;;;12.25;;
11422;SDS011;5768;51.476;7.210;2023-06-22T05:52:33;14.15;;;12.65;;
11422;SDS011;5768;51.476;7.210;2023-06-22T05:57:36;16.55;;;12.00;;
11422;SDS011;5768;51.476;7.210;2023-06-22T06:02:40;13.93;;;12.00;;
11422;SDS011;5768;51.476;7.210;2023-06-22T06:07:44;16.73;;;11.48;;
11422;SDS011;5768;51.476;7.210;2023-06-22T06:12:47;14.48;;;12.20;;
11422;SDS011;5768;51.476;7.210;2023-06-22T06:17:51;13.90;;;10.95;;
11422;SDS011;5768;51.476;7.210;2023-06-22T06:22:55;23.20;;;14.38;;
11422;SDS011;5768;51.476;7.210;2023-06-22T06:27:57;73.40;;;24.63;;
11422;SDS011;5768;51.476;7.210;2023-06-22T06:33:01;14.48;;;10.18;;
11422;SDS011;5768;51.476;7.210;2023-06-22T06:38:05;18.27;;;11.23;;
11422;SDS011;5768;51.476;7.210;2023-06-22T06:43:07;13.85;;;11.80;;
11422;SDS011;5768;51.476;7.210;2023-06-22T06:48:11;12.13;;;10.68;;
11422;SDS011;5768;51.476;7.210;2023-06-22T06:53:14;13.75;;;10.57;;
11422;SDS011;5768;51.476;7.210;2023-06-22T06:58:16;12.90;;;11.70;;
11422;SDS011;5768;51.476;7.210;2023-06-22T07:03:20;13.60;;;11.55;;
11422;SDS011;5768;51.476;7.210;2023-06-22T07:08:23;13.40;;;10.80;;
11422;SDS011;5768;51.476;7.210;2023-06-22T07:13:26;14.50;;;13.10;;
11422;SDS011;5768;51.476;7.210;2023-06-22T07:18:29;12.13;;;10.88;;
11422;SDS011;5768;51.476;7.210;2023-06-22T07:23:32;13.18;;;11.98;;
11422;SDS011;5768;51.476;7.210;2023-06-22T07:28:34;14.38;;;12.18;;
11422;SDS011;5768;51.476;7.210;2023-06-22T07:33:39;15.27;;;13.50;;
11422;SDS011;5768;51.476;7.210;2023-06-22T07:38:42;14.95;;;12.57;;
11422;SDS011;5768;51.476;7.210;2023-06-22T07:43:44;14.73;;;13.32;;
11422;SDS011;5768;51.476;7.210;2023-06-22T07:48:48;15.48;;;13.95;;
11422;SDS011;5768;51.476;7.210;2023-06-22T07:53:51;15.07;;;12.65;;
11422;SDS011;5768;51.476;7.210;2023-06-22T07:58:54;14.30;;;12.82;;
11422;SDS011;5768;51.476;7.210;2023-06-22T08:03:59;13.52;;;12.18;;
11422;SDS011;5768;51.476;7.210;2023-06-22T08:09:02;16.83;;;15.18;;
11422;SDS011;5768;51.476;7.210;2023-06-22T08:14:04;19.30;;;17.50;;
11422;SDS011;5768;51.476;7.210;2023-06-22T08:19:08;18.17;;;16.52;;
11422;SDS011;5768;51.476;7.210;2023-06-22T08:24:11;14.60;;;13.15;;
11422;SDS011;5768;51.476;7.210;2023-06-22T08:29:13;14.73;;;13.35;;
11422;SDS011;5768;51.476;7.210;2023-06-22T08:34:17;13.65;;;12.25;;
11422;SDS011;5768;51.476;7.210;2023-06-22T08:39:25;14.65;;;13.13;;
11422;SDS011;5768;51.476;7.210;2023-06-22T08:44:28;13.60;;;12.32;;
11422;SDS011;5768;51.476;7.210;2023-06-22T08:49:32;13.50;;;12.32;;
11422;SDS011;5768;51.476;7.210;2023-06-22T08:54:34;15.38;;;14.00;;
11422;SDS011;5768;51.476;7.210;2023-06-22T08:59:37;14.63;;;13.15;;
11422;SDS011;5768;51.476;7.210;2023-06-22T09:04:41;14.27;;;12.93;;
11422;SDS011;5768;51.476;7.210;2023-06-22T09:09:44;14.88;;;13.48;;
11422;SDS011;5768;51.476;7.210;2023-06-22T09:14:46;15.35;;;13.85;;
11422;SDS011;5768;51.476;7.210;2023-06-22T09:19:50;17.02;;;14.13;;
11422;SDS011;5768;51.476;7.210;2023-06-22T09:24:53;14.75;;;13.48;;
11422;SDS011;5768;51.476;7.210;2023-06-22T09:29:55;15.13;;;13.73;;
11422;SDS011;5768;51.476;7.210;2023-06-22T09:35:01;14.95;;;13.45;;
11422;SDS011;5768;51.476;7.210;2023-06-22T09:40:06;16.33;;;14.82;;
11422;SDS011;5768;51.476;7.210;2023-06-22T09:45:11;15.70;;;12.68;;
11422;SDS011;5768;51.476;7.210;2023-06-22T09:50:15;11.95;;;10.90;;
11422;SDS011;5768;51.476;7.210;2023-06-22T09:55:17;13.32;;;12.23;;
11422;SDS011;5768;51.476;7.210;2023-06-22T10:00:20;12.85;;;11.75;;
11422;SDS011;5768;51.476;7.210;2023-06-22T10:05:23;13.00;;;11.85;;
11422;SDS011;5768;51.476;7.210;2023-06-22T10:10:26;10.77;;;9.90;;
11422;SDS011;5768;51.476;7.210;2023-06-22T10:15:28;9.90;;;9.10;;
11422;SDS011;5768;51.476;7.210;2023-06-22T10:20:32;9.18;;;8.38;;
11422;SDS011;5768;51.476;7.210;2023-06-22T10:25:35;9.68;;;8.77;;
11422;SDS011;5768;51.476;7.210;2023-06-22T10:30:37;8.63;;;7.82;;
11422;SDS011;5768;51.476;7.210;2023-06-22T10:35:42;9.30;;;8.35;;
11422;SDS011;5768;51.476;7.210;2023-06-22T10:40:45;8.18;;;7.40;;
11422;SDS011;5768;51.476;7.210;2023-06-22T10:45:47;8.43;;;7.63;;
11422;SDS011;5768;51.476;7.210;2023-06-22T10:50:51;8.05;;;7.25;;
11422;SDS011;5768;51.476;7.210;2023-06-22T10:55:54;8.18;;;7.25;;
11422;SDS011;5768;51.476;7.210;2023-06-22T11:00:57;8.57;;;7.82;;
11422;SDS011;5768;51.476;7.210;2023-06-22T11:06:01;8.95;;;8.05;;
11422;SDS011;5768;51.476;7.210;2023-06-22T11:11:04;8.75;;;7.88;;
11422;SDS011;5768;51.476;7.210;2023-06-22T11:16:06;8.85;;;8.15;;
11422;SDS011;5768;51.476;7.210;2023-06-22T11:21:10;9.48;;;8.32;;
11422;SDS011;5768;51.476;7.210;2023-06-22T11:26:13;10.02;;;9.05;;
11422;SDS011;5768;51.476;7.210;2023-06-22T11:31:15;10.90;;;9.93;;
11422;SDS011;5768;51.476;7.210;2023-06-22T11:36:19;11.13;;;10.02;;
11422;SDS011;5768;51.476;7.210;2023-06-22T11:41:22;13.30;;;11.85;;
11422;SDS011;5768;51.476;7.210;2023-06-22T11:46:24;14.20;;;12.07;;
11422;SDS011;5768;51.476;7.210;2023-06-22T11:51:28;15.07;;;13.77;;
11422;SDS011;5768;51.476;7.210;2023-06-22T11:56:32;17.35;;;15.68;;
11422;SDS011;5768;51.476;7.210;2023-06-22T12:01:35;21.33;;;18.52;;
11422;SDS011;5768;51.476;7.210;2023-06-22T12:06:38;20.92;;;18.83;;
11422;SDS011;5768;51.476;7.210;2023-06-22T12:11:43;22.17;;;19.95;;
11422;SDS011;5768;51.476;7.210;2023-06-22T12:16:45;21.73;;;19.73;;
11422;SDS011;5768;51.476;7.210;2023-06-22T12:21:49;21.25;;;19.40;;
11422;SDS011;5768;51.476;7.210;2023-06-22T12:26:51;21.20;;;19.13;;
11422;SDS011;5768;51.476;7.210;2023-06-22T12:31:54;23.05;;;20.85;;
11422;SDS011;5768;51.476;7.210;2023-06-22T12:36:58;21.85;;;19.88;;
11422;SDS011;5768;51.476;7.210;2023-06-22T12:42:00;22.92;;;21.08;;
11422;SDS011;5768;51.476;7.210;2023-06-22T12:47:03;30.83;;;22.50;;
11422;SDS011;5768;51.476;7.210;2023-06-22T12:52:09;24.10;;;21.95;;
11422;SDS011;5768;51.476;7.210;2023-06-22T12:57:12;20.45;;;18.50;;
11422;SDS011;5768;51.476;7.210;2023-06-22T13:02:14;22.50;;;20.40;;
11422;SDS011;5768;51.476;7.210;2023-06-22T13:07:18;21.10;;;19.35;;
11422;SDS011;5768;51.476;7.210;2023-06-22T13:12:21;19.52;;;17.75;;
11422;SDS011;5768;51.476;7.210;2023-06-22T13:17:23;18.17;;;16.30;;
11422;SDS011;5768;51.476;7.210;2023-06-22T13:22:28;15.20;;;13.85;;
11422;SDS011;5768;51.476;7.210;2023-06-22T13:27:32;15.27;;;13.82;;
11422;SDS011;5768;51.476;7.210;2023-06-22T13:32:34;13.68;;;12.35;;
11422;SDS011;5768;51.476;7.210;2023-06-22T13:37:38;13.32;;;12.13;;
11422;SDS011;5768;51.476;7.210;2023-06-22T13:42:41;14.00;;;12.70;;
11422;SDS011;5768;51.476;7.210;2023-06-22T13:47:43;14.45;;;12.95;;
11422;SDS011;5768;51.476;7.210;2023-06-22T13:52:47;14.05;;;12.85;;
11422;SDS011;5768;51.476;7.210;2023-06-22T13:57:49;16.52;;;15.18;;
11422;SDS011;5768;51.476;7.210;2023-06-22T14:02:52;13.30;;;12.00;;
11422;SDS011;5768;51.476;7.210;2023-06-22T14:07:56;15.80;;;14.40;;
11422;SDS011;5768;51.476;7.210;2023-06-22T14:12:58;15.30;;;14.00;;
11422;SDS011;5768;51.476;7.210;2023-06-22T14:18:01;11.18;;;10.18;;
11422;SDS011;5768;51.476;7.210;2023-06-22T14:23:05;11.88;;;10.98;;
11422;SDS011;5768;51.476;7.210;2023-06-22T14:28:07;11.77;;;10.57;;
11422;SDS011;5768;51.476;7.210;2023-06-22T14:33:10;14.60;;;13.15;;
11422;SDS011;5768;51.476;7.210;2023-06-22T14:38:14;11.00;;;10.10;;
11422;SDS011;5768;51.476;7.210;2023-06-22T14:43:17;12.00;;;11.00;;
11422;SDS011;5768;51.476;7.210;2023-06-22T14:48:20;12.60;;;11.52;;
11422;SDS011;5768;51.476;7.210;2023-06-22T14:53:24;12.05;;;11.00;;
11422;SDS011;5768;51.476;7.210;2023-06-22T14:58:27;12.85;;;11.68;;
11422;SDS011;5768;51.476;7.210;2023-06-22T15:03:30;14.10;;;12.85;;
11422;SDS011;5768;51.476;7.210;2023-06-22T15:08:34;12.93;;;11.70;;
11422;SDS011;5768;51.476;7.210;2023-06-22T15:13:38;13.80;;;12.50;;
11422;SDS011;5768;51.476;7.210;2023-06-22T15:18:42;12.80;;;11.80;;
11422;SDS011;5768;51.476;7.210;2023-06-22T15:23:46;12.57;;;11.57;;
11422;SDS011;5768;51.476;7.210;2023-06-22T15:28:49;12.98;;;11.88;;
11422;SDS011;5768;51.476;7.210;2023-06-22T15:33:51;14.95;;;13.45;;
11422;SDS011;5768;51.476;7.210;2023-06-22T15:38:56;14.25;;;12.90;;
11422;SDS011;5768;51.476;7.210;2023-06-22T15:43:58;15.23;;;13.93;;
11422;SDS011;5768;51.476;7.210;2023-06-22T15:49:01;14.90;;;13.60;;
11422;SDS011;5768;51.476;7.210;2023-06-22T15:54:05;15.80;;;14.48;;
11422;SDS011;5768;51.476;7.210;2023-06-22T15:59:07;15.43;;;14.13;;
11422;SDS011;5768;51.476;7.210;2023-06-22T16:04:10;14.75;;;13.55;;
11422;SDS011;5768;51.476;7.210;2023-06-22T16:09:14;15.10;;;13.77;;
11422;SDS011;5768;51.476;7.210;2023-06-22T16:14:16;14.93;;;13.57;;
11422;SDS011;5768;51.476;7.210;2023-06-22T16:19:19;15.25;;;13.75;;
11422;SDS011;5768;51.476;7.210;2023-06-22T16:24:23;15.05;;;13.65;;
11422;SDS011;5768;51.476;7.210;2023-06-22T16:29:25;15.45;;;13.93;;
11422;SDS011;5768;51.476;7.210;2023-06-22T16:34:28;15.57;;;14.23;;
11422;SDS011;5768;51.476;7.210;2023-06-22T16:39:32;15.40;;;14.05;;
11422;SDS011;5768;51.476;7.210;2023-06-22T16:44:35;16.10;;;14.48;;
11422;SDS011;5768;51.476;7.210;2023-06-22T16:49:38;16.95;;;15.27;;
11422;SDS011;5768;51.476;7.210;2023-06-22T16:54:42;17.35;;;15.85;;
11422;SDS011;5768;51.476;7.210;2023-06-22T16:59:45;17.45;;;15.95;;
11422;SDS011;5768;51.476;7.210;2023-06-22T17:04:48;17.50;;;15.90;;
11422;SDS011;5768;51.476;7.210;2023-06-22T17:09:55;18.77;;;16.85;;
11422;SDS011;5768;51.476;7.210;2023-06-22T17:14:58;17.48;;;15.88;;
11422;SDS011;5768;51.476;7.210;2023-06-22T17:20:03;17.75;;;16.13;;
11422;SDS011;5768;51.476;7.210;2023-06-22T17:25:08;20.45;;;18.58;;
11422;SDS011;5768;51.476;7.210;2023-06-22T17:30:12;17.75;;;16.27;;
11422;SDS011;5768;51.476;7.210;2023-06-22T17:35:17;17.90;;;15.95;;
11422;SDS011;5768;51.476;7.210;2023-06-22T17:40:21;17.20;;;15.70;;
11422;SDS011;5768;51.476;7.210;2023-06-22T17:45:26;16.77;;;15.18;;
11422;SDS011;5768;51.476;7.210;2023-06-22T17:50:28;15.95;;;14.60;;
11422;SDS011;5768;51.476;7.210;2023-06-22T17:55:32;15.85;;;14.35;;
11422;SDS011;5768;51.476;7.210;2023-06-22T18:00:35;16.17;;;14.68;;
11422;SDS011;5768;51.476;7.210;2023-06-22T18:05:38;16.67;;;15.27;;
11422;SDS011;5768;51.476;7.210;2023-06-22T18:10:47;15.95;;;14.63;;
11422;SDS011;5768;51.476;7.210;2023-06-22T18:15:51;17.60;;;15.90;;
11422;SDS011;5768;51.476;7.210;2023-06-22T18:20:54;17.38;;;15.80;;
11422;SDS011;5768;51.476;7.210;2023-06-22T18:25:59;18.25;;;16.52;;
11422;SDS011;5768;51.476;7.210;2023-06-22T18:31:04;19.30;;;17.60;;
11422;SDS011;5768;51.476;7.210;2023-06-22T18:36:07;20.25;;;18.55;;
11422;SDS011;5768;51.476;7.210;2023-06-22T18:41:21;21.45;;;19.55;;
11422;SDS011;5768;51.476;7.210;2023-06-22T18:46:31;22.52;;;20.58;;
11422;SDS011;5768;51.476;7.210;2023-06-22T18:51:48;21.10;;;19.30;;
11422;SDS011;5768;51.476;7.210;2023-06-22T18:56:58;22.83;;;20.92;;
11422;SDS011;5768;51.476;7.210;2023-06-22T19:02:02;22.10;;;20.27;;
11422;SDS011;5768;51.476;7.210;2023-06-22T19:07:08;24.50;;;22.38;;
11422;SDS011;5768;51.476;7.210;2023-06-22T19:12:20;23.67;;;21.35;;
11422;SDS011;5768;51.476;7.210;2023-06-22T19:17:25;23.20;;;21.33;;
11422;SDS011;5768;51.476;7.210;2023-06-22T19:22:42;20.38;;;18.77;;
11422;SDS011;5768;51.476;7.210;2023-06-22T19:27:48;20.58;;;18.67;;
11422;SDS011;5768;51.476;7.210;2023-06-22T19:32:55;16.30;;;14.80;;
11422;SDS011;5768;51.476;7.210;2023-06-22T19:37:58;13.13;;;11.88;;
11422;SDS011;5768;51.476;7.210;2023-06-22T19:43:02;11.48;;;9.27;;
11422;SDS011;5768;51.476;7.210;2023-06-22T19:48:08;11.20;;;10.13;;
11422;SDS011;5768;51.476;7.210;2023-06-22T19:53:12;12.60;;;11.50;;
11422;SDS011;5768;51.476;7.210;2023-06-22T19:58:17;15.70;;;14.20;;
11422;SDS011;5768;51.476;7.210;2023-06-22T20:03:22;21.65;;;19.75;;
11422;SDS011;5768;51.476;7.210;2023-06-22T20:08:27;23.33;;;20.73;;
11422;SDS011;5768;51.476;7.210;2023-06-22T20:13:31;24.88;;;22.67;;
11422;SDS011;5768;51.476;7.210;2023-06-22T20:18:33;29.70;;;27.02;;
11422;SDS011;5768;51.476;7.210;2023-06-22T20:23:36;25.90;;;23.70;;
11422;SDS011;5768;51.476;7.210;2023-06-22T20:28:40;7.68;;;6.97;;
11422;SDS011;5768;51.476;7.210;2023-06-22T20:33:42;2.60;;;2.40;;
11422;SDS011;5768;51.476;7.210;2023-06-22T20:38:45;3.08;;;2.30;;
11422;SDS011;5768;51.476;7.210;2023-06-22T20:43:53;3.50;;;2.53;;
11422;SDS011;5768;51.476;7.210;2023-06-22T20:48:56;4.47;;;3.00;;
11422;SDS011;5768;51.476;7.210;2023-06-22T20:53:59;3.42;;;3.13;;
11422;SDS011;5768;51.476;7.210;2023-06-22T20:59:05;4.63;;;4.25;;
11422;SDS011;5768;51.476;7.210;2023-06-22T21:04:08;5.72;;;4.35;;
11422;SDS011;5768;51.476;7.210;2023-06-22T21:09:10;3.33;;;2.58;;
11422;SDS011;5768;51.476;7.210;2023-06-22T21:14:14;3.60;;;3.00;;
11422;SDS011;5768;51.476;7.210;2023-06-22T21:19:17;4.32;;;3.53;;
11422;SDS011;5768;51.476;7.210;2023-06-22T21:24:19;4.15;;;3.47;;
11422;SDS011;5768;51.476;7.210;2023-06-22T21:29:23;4.55;;;2.78;;
11422;SDS011;5768;51.476;7.210;2023-06-22T21:34:27;3.17;;;2.63;;
11422;SDS011;5768;51.476;7.210;2023-06-22T21:39:29;2.85;;;2.50;;
11422;SDS011;5768;51.476;7.210;2023-06-22T21:44:36;2.72;;;2.40;;
11422;SDS011;5768;51.476;7.210;2023-06-22T21:49:39;3.83;;;3.42;;
11422;SDS011;5768;51.476;7.210;2023-06-22T21:54:41;3.13;;;2.85;;
11422;SDS011;5768;51.476;7.210;2023-06-22T21:59:45;3.42;;;3.15;;
11422;SDS011;5768;51.476;7.210;2023-06-22T22:04:47;6.10;;;5.50;;
11422;SDS011;5768;51.476;7.210;2023-06-22T22:09:51;5.43;;;4.93;;
11422;SDS011;5768;51.476;7.210;2023-06-22T22:14:55;5.28;;;4.78;;
11422;SDS011;5768;51.476;7.210;2023-06-22T22:19:57;7.07;;;5.80;;
11422;SDS011;5768;51.476;7.210;2023-06-22T22:24:59;9.18;;;7.35;;
11422;SDS011;5768;51.476;7.210;2023-06-22T22:30:03;9.30;;;8.30;;
11422;SDS011;5768;51.476;7.210;2023-06-22T22:35:07;7.68;;;6.45;;
11422;SDS011;5768;51.476;7.210;2023-06-22T22:40:10;8.65;;;7.75;;
11422;SDS011;5768;51.476;7.210;2023-06-22T22:45:14;10.32;;;9.30;;
11422;SDS011;5768;51.476;7.210;2023-06-22T22:50:16;12.88;;;10.77;;
11422;SDS011;5768;51.476;7.210;2023-06-22T22:55:19;8.60;;;7.57;;
11422;SDS011;5768;51.476;7.210;2023-06-22T23:00:24;15.07;;;11.30;;
11422;SDS011;5768;51.476;7.210;2023-06-22T23:05:26;11.27;;;9.20;;
11422;SDS011;5768;51.476;7.210;2023-06-22T23:10:29;14.23;;;10.80;;
11422;SDS011;5768;51.476;7.210;2023-06-22T23:15:32;8.50;;;7.35;;
11422;SDS011;5768;51.476;7.210;2023-06-22T23:20:34;12.90;;;11.10;;
11422;SDS011;5768;51.476;7.210;2023-06-22T23:25:37;10.45;;;8.65;;
11422;SDS011;5768;51.476;7.210;2023-06-22T23:30:42;12.07;;;10.82;;
11422;SDS011;5768;51.476;7.210;2023-06-22T23:35:44;7.95;;;6.25;;
11422;SDS011;5768;51.476;7.210;2023-06-22T23:40:46;16.20;;;12.85;;
11422;SDS011;5768;51.476;7.210;2023-06-22T23:45:50;11.65;;;10.35;;
11422;SDS011;5768;51.476;7.210;2023-06-22T23:50:52;15.63;;;13.93;;
11422;SDS011;5768;51.476;7.210;2023-06-22T23:55:54;16.15;;;13.35;;
